This is the latest recevied weather packets stored in our database for station/object KC1IUC-15. If no packets are shown the sender has not sent any weather packets the latest 10 day(s).
| Time | Temp. | Humidity | Pressure | Rain* | Wind** | Luminosity | Snow |
|---|---|---|---|---|---|---|---|
| 1777478703 | 17.78° C | 47% | 1014 hPa | 0 mm | - | 720 W/m² | - |
| 1777478403 | 17.22° C | 50% | 1014 hPa | 0 mm | - | 467 W/m² | - |
| 1777478103 | 16.67° C | 50% | 1014 hPa | 0 mm | - | 645 W/m² | - |
| 1777477803 | 17.22° C | 48% | 1014 hPa | 0 mm | - | 720 W/m² | - |
| 1777477503 | 17.22° C | 50% | 1014 hPa | 0 mm | - | 347 W/m² | - |
| 1777477203 | 16.67° C | 48% | 1014 hPa | 0 mm | - | 640 W/m² | - |
| 1777476903 | 15.56° C | 52% | 1014.4 hPa | 0 mm | - | 648 W/m² | - |
| 1777476603 | 16.11° C | 50% | 1014.4 hPa | 0 mm | - | 519 W/m² | - |
| 1777476303 | 16.11° C | 53% | 1014.4 hPa | 0 mm | - | 641 W/m² | - |
| 1777476003 | 16.11° C | 50% | 1014 hPa | 0 mm | - | 568 W/m² | - |
| 1777475703 | 16.67° C | 48% | 1014 hPa | 0 mm | - | 620 W/m² | - |
| 1777475403 | 16.11° C | 50% | 1014.4 hPa | 0 mm | - | 671 W/m² | - |
| 1777475103 | 15.56° C | 51% | 1014 hPa | 0 mm | - | 646 W/m² | - |
| 1777474803 | 15.56° C | 51% | 1014.4 hPa | 0 mm | - | 634 W/m² | - |
| 1777474503 | 15.56° C | 49% | 1014.4 hPa | 0 mm | - | 632 W/m² | - |
| 1777474203 | 15.56° C | 50% | 1014.4 hPa | 0 mm | - | 587 W/m² | - |
| 1777473903 | 15.56° C | 50% | 1014.4 hPa | 0 mm | - | 617 W/m² | - |
| 1777473603 | 15.56° C | 51% | 1014.4 hPa | 0 mm | - | 611 W/m² | - |
| 1777473303 | 15° C | 49% | 1014.7 hPa | 0 mm | - | 597 W/m² | - |
| 1777473003 | 14.44° C | 52% | 1014.7 hPa | 0 mm | - | 587 W/m² | - |
| 1777472703 | 14.44° C | 53% | 1014.7 hPa | 0 mm | - | 574 W/m² | - |
| 1777472403 | 14.44° C | 52% | 1015 hPa | 0 mm | - | 553 W/m² | - |
| 1777472103 | 14.44° C | 53% | 1015 hPa | 0 mm | - | 570 W/m² | - |
| 1777471803 | 14.44° C | 52% | 1015 hPa | 0 mm | - | 537 W/m² | - |
| 1777471503 | 13.89° C | 55% | 1015 hPa | 0 mm | - | 538 W/m² | - |
* Rain latest hour (hover to see other rain measurements)
** Current wind speed in m/s (hover to see current wind gust speed)